San Diego, California
Traffic Map
Current Weather Conditions
San Diego, California
Broken Clouds
Broken Clouds
73°
Feels Like: 73°
Wind Chill: 73° Ceiling: 20000
Heat Index: 73° Visibility: 10mi
Dew Point: 65° Wind: 9mph
Humidity: 76% Direction: 180° (S)
Pressure: 29.9in Gusts: 0mph
Raw Report DataKSAN 250151Z 18008KT 10SM FEW040 SCT150 BKN200 23/18 A2990 RMK AO2 SLP124 T02280183
Traffic Incident Summary
Active as of:
Severity:
Category:
InformationThere was an issue retrieving the traffic information for this location. Please try a different location or try again shortly.
Advertisements
Track Severe Weather on mobile